Time;durP1;ratioP1;P1;durP2;ratioP2;P2;SDS_P1;SDS_P2;PMS_P1;PMS_P2;Temp;Humidity;BMP_temperature;BMP_pressure;BME280_temperature;BME280_humidity;BME280_pressure;Samples;Min_cycle;Max_cycle;Signal;HPM_P1;HPM_P2
2021/03/01 00:01:21;;;;;;;16.27;4.40;;;;;;;24.43;36.27;100949.00;4499232;31;34604;-52
2021/03/01 00:03:48;;;;;;;11.63;3.65;;;;;;;24.42;36.29;100951.94;4499139;31;34769;-55
2021/03/01 00:06:15;;;;;;;14.63;3.85;;;;;;;24.41;36.28;100945.63;4499076;31;34438;-58
2021/03/01 00:08:42;;;;;;;17.62;4.25;;;;;;;24.39;36.34;100939.56;4499091;31;33891;-58
2021/03/01 00:11:09;;;;;;;14.57;4.10;;;;;;;24.38;36.32;100928.81;4499003;31;34083;-51
2021/03/01 00:13:37;;;;;;;16.70;4.07;;;;;;;24.38;36.30;100928.81;4499047;31;33647;-50
2021/03/01 00:16:04;;;;;;;11.23;3.83;;;;;;;24.36;36.31;100937.22;4499058;31;33443;-57
2021/03/01 00:18:31;;;;;;;16.58;4.28;;;;;;;24.36;36.31;100936.34;4498935;31;33641;-50
2021/03/01 00:20:58;;;;;;;12.25;4.35;;;;;;;24.35;36.44;100929.22;4498731;31;33931;-55
2021/03/01 00:23:25;;;;;;;11.88;4.18;;;;;;;24.35;36.43;100929.22;4498788;31;33930;-51
2021/03/01 00:25:52;;;;;;;16.05;4.10;;;;;;;24.33;36.40;100925.84;4498758;31;33401;-52
2021/03/01 00:28:19;;;;;;;16.33;4.40;;;;;;;24.30;36.54;100926.28;4485625;31;34784;-57
2021/03/01 00:30:46;;;;;;;13.82;4.75;;;;;;;24.29;36.42;100914.50;4498636;31;34586;-56
2021/03/01 00:33:14;;;;;;;13.23;4.45;;;;;;;24.29;36.42;100910.94;4484527;31;35375;-55
2021/03/01 00:35:41;;;;;;;13.45;4.10;;;;;;;24.29;36.26;100913.66;4485032;32;33554;-58
2021/03/01 00:38:09;;;;;;;21.98;4.12;;;;;;;24.30;36.30;100909.91;4485007;32;34498;-56
2021/03/01 00:40:36;;;;;;;23.80;5.05;;;;;;;24.29;36.37;100916.38;4484931;32;34046;-56
2021/03/01 00:43:04;;;;;;;12.07;4.50;;;;;;;24.28;36.39;100907.38;4483641;31;33760;-58
2021/03/01 00:45:31;;;;;;;18.40;4.32;;;;;;;24.28;36.33;100903.81;4483829;32;33292;-58
2021/03/01 00:47:58;;;;;;;17.30;4.57;;;;;;;24.27;36.42;100893.94;4489100;31;34292;-53
2021/03/01 00:50:25;;;;;;;17.62;3.78;;;;;;;24.27;36.45;100888.50;4484781;32;33954;-51
2021/03/01 00:52:52;;;;;;;15.60;4.12;;;;;;;24.25;36.45;100896.03;4498960;31;33689;-53
2021/03/01 00:55:21;;;;;;;22.90;4.28;;;;;;;24.23;36.44;100890.78;4501045;31;33228;-52
2021/03/01 00:57:53;;;;;;;12.20;4.05;;;;;;;24.23;36.46;100893.50;4500619;31;33672;-55
2021/03/01 01:00:21;;;;;;;13.62;3.87;;;;;;;24.22;36.47;100885.53;4495475;31;33930;-50
2021/03/01 01:02:48;;;;;;;15.10;4.15;;;;;;;24.21;36.53;100878.41;4485065;32;33602;-55
2021/03/01 01:05:17;;;;;;;18.80;4.35;;;;;;;24.20;36.53;100877.53;4485202;32;34148;-52
2021/03/01 01:07:44;;;;;;;14.25;4.32;;;;;;;24.19;36.49;100870.41;4484856;32;33934;-54
2021/03/01 01:10:12;;;;;;;10.98;4.12;;;;;;;24.17;36.50;100869.81;4483105;32;33821;-56
2021/03/01 01:12:39;;;;;;;11.40;4.07;;;;;;;24.17;36.47;100872.53;4483798;32;33315;-55
2021/03/01 01:15:07;;;;;;;13.62;4.18;;;;;;;24.16;36.50;100860.78;4493181;31;33318;-54
2021/03/01 01:17:34;;;;;;;14.10;4.15;;;;;;;24.14;36.53;100859.28;4500320;31;33995;-57
2021/03/01 01:20:09;;;;;;;11.82;3.70;;;;;;;24.13;36.50;100858.47;4486450;31;33493;-56
2021/03/01 01:22:36;;;;;;;11.75;4.05;;;;;;;24.13;36.51;100863.06;4484686;32;34110;-49
2021/03/01 01:25:05;;;;;;;13.85;4.72;;;;;;;24.12;36.53;100869.56;4484703;32;33623;-56
2021/03/01 01:27:32;;;;;;;10.15;3.67;;;;;;;24.10;36.51;100853.41;4484511;32;33744;-56
2021/03/01 01:29:59;;;;;;;9.88;3.95;;;;;;;24.11;36.52;100859.72;4484671;32;34792;-53
2021/03/01 01:32:26;;;;;;;8.90;4.15;;;;;;;24.09;36.52;100862.62;4468665;32;33891;-53
2021/03/01 01:34:53;;;;;;;10.73;4.15;;;;;;;24.07;36.54;100848.38;4469000;32;33548;-55
2021/03/01 01:37:21;;;;;;;9.43;3.83;;;;;;;24.06;36.55;100843.97;4477227;32;33807;-53
2021/03/01 01:39:48;;;;;;;9.82;3.97;;;;;;;24.06;36.60;100845.84;4484692;32;33831;-52
2021/03/01 01:42:15;;;;;;;8.50;3.70;;;;;;;24.05;36.56;100841.44;4483960;32;34502;-54
2021/03/01 01:44:42;;;;;;;9.98;3.70;;;;;;;24.05;36.69;100838.72;4484445;32;33469;-53
2021/03/01 01:47:09;;;;;;;12.18;3.75;;;;;;;24.04;36.72;100840.59;4484292;32;34620;-50
2021/03/01 01:49:36;;;;;;;12.55;3.97;;;;;;;24.04;36.72;100846.06;4484755;32;33971;-55
2021/03/01 01:52:04;;;;;;;10.52;3.72;;;;;;;24.03;36.70;100846.28;4484595;32;34430;-56
2021/03/01 01:54:31;;;;;;;11.85;4.07;;;;;;;24.01;36.71;100841.00;4483161;32;34118;-55
2021/03/01 01:56:58;;;;;;;10.43;3.75;;;;;;;24.01;36.73;100848.34;4470437;32;34451;-54
2021/03/01 01:59:25;;;;;;;9.05;3.72;;;;;;;24.00;36.71;100850.22;4483364;32;33887;-53
2021/03/01 02:01:52;;;;;;;11.45;3.78;;;;;;;24.00;36.74;100854.84;4484489;32;33757;-53
2021/03/01 02:04:21;;;;;;;12.98;3.62;;;;;;;23.99;36.76;100854.00;4483405;32;33321;-50
2021/03/01 02:06:53;;;;;;;13.88;4.35;;;;;;;23.98;36.74;100856.94;4472001;31;34342;-55
2021/03/01 02:10:02;;;;;;;7.65;3.67;;;;;;;23.98;36.80;100865.97;4488327;31;34867;-55
2021/03/01 02:12:52;;;;;;;6.87;3.00;;;;;;;23.98;36.74;100865.97;4499911;31;34009;-52
2021/03/01 02:15:44;;;;;;;12.82;4.22;;;;;;;23.98;36.81;100862.41;4500267;31;33192;-51
2021/03/01 02:18:12;;;;;;;8.20;3.00;;;;;;;23.93;36.83;100869.31;4486053;31;34615;-55
2021/03/01 02:20:41;;;;;;;9.32;3.95;;;;;;;23.92;36.87;100869.50;4500059;31;34410;-52
2021/03/01 02:23:10;;;;;;;5.57;3.25;;;;;;;23.91;36.89;100857.75;4500241;31;33589;-53
2021/03/01 02:25:40;;;;;;;8.45;3.75;;;;;;;23.91;36.91;100856.91;4500306;31;34387;-51
2021/03/01 02:28:08;;;;;;;11.05;3.37;;;;;;;23.90;36.86;100847.91;4485797;31;33843;-49
2021/03/01 02:30:46;;;;;;;12.43;4.53;;;;;;;23.90;37.09;100850.63;4485877;31;33908;-51
2021/03/01 02:33:16;;;;;;;8.30;3.80;;;;;;;23.89;37.11;100840.78;4473177;31;34545;-51
2021/03/01 02:35:59;;;;;;;7.70;3.58;;;;;;;23.89;37.05;100839.94;4500099;31;33304;-56
2021/03/01 02:38:27;;;;;;;14.05;3.78;;;;;;;23.88;37.05;100843.72;4482932;32;34627;-49
2021/03/01 02:40:55;;;;;;;15.40;4.12;;;;;;;23.88;37.02;100843.72;4469981;32;33710;-56
2021/03/01 02:43:23;;;;;;;6.87;2.92;;;;;;;23.87;37.18;100856.47;4484264;32;33967;-53
2021/03/01 02:45:50;;;;;;;9.63;3.42;;;;;;;23.87;37.09;100858.34;4483053;32;33114;-56
2021/03/01 02:48:17;;;;;;;7.93;3.22;;;;;;;23.86;37.08;100867.59;4482759;32;34533;-50
2021/03/01 02:50:44;;;;;;;13.73;3.35;;;;;;;23.85;37.10;100874.09;4484182;32;33833;-53
2021/03/01 02:53:15;;;;;;;10.60;3.87;;;;;;;23.85;37.20;100877.66;4484144;32;33769;-51
2021/03/01 02:55:42;;;;;;;;;;;;;;;23.83;37.34;100874.31;4470052;32;34458;-54
2021/03/01 02:58:10;;;;;;;9.45;3.40;;;;;;;23.95;37.13;100884.63;4484187;32;34844;-52
2021/03/01 03:00:38;;;;;;;12.73;3.85;;;;;;;23.86;37.24;100881.22;4484425;32;33827;-53
2021/03/01 03:03:07;;;;;;;8.80;3.25;;;;;;;23.83;37.35;100876.19;4483124;32;34639;-51
2021/03/01 03:05:34;;;;;;;10.93;3.70;;;;;;;23.83;37.42;100870.75;4482860;32;33486;-55
2021/03/01 03:08:02;;;;;;;10.68;3.65;;;;;;;23.81;37.33;100873.66;4493920;31;34470;-55
2021/03/01 03:10:29;;;;;;;13.00;3.70;;;;;;;23.81;37.35;100868.19;4499943;31;33739;-53
2021/03/01 03:12:56;;;;;;;6.87;3.12;;;;;;;23.80;37.33;100871.97;4485754;31;33765;-51
2021/03/01 03:15:23;;;;;;;8.45;2.83;;;;;;;23.79;37.36;100886.66;4498532;31;33085;-54
2021/03/01 03:17:50;;;;;;;8.02;3.00;;;;;;;23.80;37.26;100877.41;4485371;31;35046;-54
2021/03/01 03:20:17;;;;;;;7.10;3.47;;;;;;;23.80;37.28;100888.31;4498788;31;34835;-53
2021/03/01 03:22:45;;;;;;;10.13;3.95;;;;;;;23.79;37.26;100902.16;4499847;31;34481;-51
2021/03/01 03:25:12;;;;;;;12.82;3.37;;;;;;;23.78;37.26;100893.16;4485294;31;33109;-54
2021/03/01 03:27:39;;;;;;;9.75;3.53;;;;;;;23.78;37.43;100904.06;4499516;31;34788;-49
2021/03/01 03:30:12;;;;;;;11.25;3.25;;;;;;;23.78;37.54;100909.50;4499688;31;33973;-54
2021/03/01 03:32:40;;;;;;;10.75;3.55;;;;;;;23.78;37.55;100917.69;4498543;31;34409;-50
2021/03/01 03:35:09;;;;;;;10.90;4.15;;;;;;;23.79;37.51;100915.78;4485378;31;34126;-54
2021/03/01 03:37:39;;;;;;;10.10;3.53;;;;;;;23.78;37.47;100922.25;4499394;31;33843;-51
2021/03/01 03:40:07;;;;;;;9.48;3.10;;;;;;;23.78;37.54;100905.91;4485772;31;33908;-50
2021/03/01 03:42:34;;;;;;;10.73;3.45;;;;;;;23.77;37.36;100906.97;4499411;31;33625;-54
2021/03/01 03:45:04;;;;;;;15.27;5.37;;;;;;;23.77;37.60;100915.13;4498094;31;33179;-53
2021/03/01 03:47:31;;;;;;;11.52;3.35;;;;;;;23.75;37.65;100914.50;4485323;31;33873;-52
2021/03/01 03:49:58;;;;;;;8.23;3.12;;;;;;;23.77;37.58;100936.94;4485230;31;33922;-53
2021/03/01 03:52:27;;;;;;;8.00;3.10;;;;;;;23.75;37.53;100939.03;4498804;31;34130;-58
2021/03/01 03:54:54;;;;;;;9.60;2.90;;;;;;;23.74;37.51;100946.38;4498246;31;34306;-52
2021/03/01 03:57:23;;;;;;;12.00;3.40;;;;;;;23.73;37.53;100933.75;4485107;31;33755;-55
2021/03/01 03:59:50;;;;;;;8.48;3.12;;;;;;;23.72;37.46;100937.53;4497912;31;33851;-50
2021/03/01 04:02:17;;;;;;;9.32;3.92;;;;;;;23.72;37.47;100950.31;4498076;31;33850;-52
2021/03/01 04:04:45;;;;;;;10.07;3.22;;;;;;;23.71;37.44;100960.38;4497921;31;33344;-49
2021/03/01 04:07:12;;;;;;;6.60;3.28;;;;;;;23.71;37.49;100954.09;4493367;31;34547;-51
2021/03/01 04:09:41;;;;;;;6.57;3.30;;;;;;;23.70;37.50;100956.00;4471151;32;33543;-54
2021/03/01 04:12:10;;;;;;;7.97;3.35;;;;;;;23.69;37.49;100965.22;4471309;32;33830;-53
2021/03/01 04:14:37;;;;;;;8.73;3.50;;;;;;;23.68;37.42;100958.91;4470677;32;33308;-56
2021/03/01 04:17:07;;;;;;;6.37;2.92;;;;;;;23.67;37.45;100959.94;4483515;32;33867;-54
2021/03/01 04:19:34;;;;;;;8.13;3.47;;;;;;;23.67;37.46;100970.00;4485576;32;33932;-55
2021/03/01 04:22:01;;;;;;;11.15;3.30;;;;;;;23.67;37.37;100970.84;4493729;31;33580;-56
2021/03/01 04:24:29;;;;;;;16.05;3.67;;;;;;;23.67;37.50;100970.84;4486746;31;33429;-58
2021/03/01 04:26:58;;;;;;;8.95;3.33;;;;;;;23.67;37.43;100975.44;4499760;31;33745;-58
2021/03/01 04:29:25;;;;;;;7.30;3.15;;;;;;;23.65;37.47;100983.00;4486655;31;34526;-58
2021/03/01 04:31:52;;;;;;;8.63;3.25;;;;;;;23.65;37.50;100989.28;4486510;31;35016;-55
2021/03/01 04:34:20;;;;;;;7.28;3.42;;;;;;;23.64;37.48;100990.34;4465296;32;33292;-58
2021/03/01 04:36:47;;;;;;;9.13;3.12;;;;;;;23.63;37.46;100994.03;4468330;32;33601;-58
2021/03/01 04:39:14;;;;;;;7.78;3.20;;;;;;;23.64;37.52;100997.62;4455225;32;33762;-57
2021/03/01 04:41:42;;;;;;;6.37;3.03;;;;;;;23.65;37.50;100996.63;4468155;32;34209;-58
2021/03/01 04:44:10;;;;;;;10.05;3.28;;;;;;;23.63;37.53;100996.78;4455391;32;33212;-56
2021/03/01 04:46:37;;;;;;;9.52;3.45;;;;;;;23.63;37.55;100987.75;4468169;32;33814;-57
2021/03/01 04:49:04;;;;;;;9.20;3.45;;;;;;;23.62;37.53;100989.63;4469327;32;33967;-54
2021/03/01 04:51:31;;;;;;;8.65;2.90;;;;;;;23.62;37.49;100989.63;4455243;32;34414;-56
2021/03/01 04:53:58;;;;;;;8.73;3.87;;;;;;;23.62;37.51;100995.09;4469609;32;33429;-58
2021/03/01 04:56:25;;;;;;;6.05;3.20;;;;;;;23.62;37.51;100996.97;4468094;32;34919;-54
2021/03/01 04:58:52;;;;;;;7.93;3.10;;;;;;;23.61;37.44;101003.47;4454929;32;34280;-55
2021/03/01 05:01:19;;;;;;;9.60;3.00;;;;;;;23.60;37.46;100999.91;4455224;32;33927;-54
2021/03/01 05:03:47;;;;;;;5.60;2.58;;;;;;;23.60;37.46;101009.97;4455243;32;33257;-57
2021/03/01 05:06:15;;;;;;;9.20;3.22;;;;;;;23.59;37.44;101009.09;4467995;32;34466;-60
2021/03/01 05:08:42;;;;;;;8.20;3.10;;;;;;;23.59;37.46;101017.28;4455132;32;33599;-56
2021/03/01 05:11:09;;;;;;;8.82;3.12;;;;;;;23.59;37.47;101011.81;4477681;32;33730;-55
2021/03/01 05:13:36;;;;;;;7.35;3.10;;;;;;;23.59;37.55;101021.88;4468894;32;34261;-58
2021/03/01 05:16:03;;;;;;;9.75;3.05;;;;;;;23.58;37.45;101025.66;4469214;32;35057;-55
2021/03/01 05:18:31;;;;;;;7.72;2.80;;;;;;;23.58;37.45;101025.66;4469096;32;33859;-59
2021/03/01 05:20:58;;;;;;;9.30;3.47;;;;;;;23.58;37.46;101031.09;4467808;32;33751;-58
2021/03/01 05:23:25;;;;;;;8.02;3.08;;;;;;;23.58;37.44;101028.38;4469494;32;33272;-54
2021/03/01 05:25:52;;;;;;;7.72;3.28;;;;;;;23.55;37.48;101032.34;4469024;32;33927;-54
2021/03/01 05:28:19;;;;;;;8.38;3.20;;;;;;;23.55;37.44;101032.34;4468900;32;34519;-60
2021/03/01 05:31:06;;;;;;;9.85;3.03;;;;;;;23.56;37.50;101028.59;4479015;32;34066;-59
2021/03/01 05:33:34;;;;;;;7.85;2.75;;;;;;;23.55;37.45;101037.81;4468666;32;33510;-55
2021/03/01 05:36:03;;;;;;;8.55;2.92;;;;;;;23.55;37.47;101042.38;4468899;32;34561;-56
2021/03/01 05:38:32;;;;;;;9.68;2.90;;;;;;;23.54;37.46;101043.44;4468967;32;33675;-56
2021/03/01 05:41:01;;;;;;;7.80;3.15;;;;;;;23.55;37.44;101056.00;4468998;32;34477;-53
2021/03/01 05:43:28;;;;;;;7.60;2.72;;;;;;;23.54;37.50;101060.63;4468997;32;33003;-57
2021/03/01 05:45:59;;;;;;;10.55;2.85;;;;;;;23.54;37.60;101057.91;4477553;32;34724;-52
2021/03/01 05:48:27;;;;;;;5.57;2.72;;;;;;;23.53;37.55;101069.84;4482926;32;33920;-54
2021/03/01 05:51:00;;;;;;;7.30;3.00;;;;;;;23.52;37.50;101065.44;4494616;31;34538;-50
2021/03/01 05:53:31;;;;;;;7.43;2.75;;;;;;;23.52;37.59;101068.16;4499664;31;33250;-54
2021/03/01 05:55:59;;;;;;;10.32;2.90;;;;;;;23.52;37.58;101076.34;4484539;32;34475;-50
2021/03/01 05:58:26;;;;;;;10.10;3.05;;;;;;;23.52;37.57;101087.22;4484790;32;33650;-50
2021/03/01 06:00:59;;;;;;;6.78;2.42;;;;;;;23.51;37.64;101080.09;4484414;32;33741;-52
2021/03/01 06:03:32;;;;;;;8.77;2.70;;;;;;;23.51;37.63;101090.16;4470767;32;32960;-59
2021/03/01 06:06:00;;;;;;;7.10;3.70;;;;;;;23.51;37.63;101093.72;4481588;32;33893;-53
2021/03/01 06:08:27;;;;;;;6.93;2.97;;;;;;;23.50;37.62;101100.22;4469064;32;33959;-53
2021/03/01 06:11:04;;;;;;;9.90;3.10;;;;;;;23.51;37.61;101091.00;4479694;32;34676;-54
2021/03/01 06:13:32;;;;;;;7.80;2.97;;;;;;;23.49;37.64;101090.34;4484267;32;33333;-50
2021/03/01 06:15:59;;;;;;;9.05;3.22;;;;;;;23.49;37.58;101103.94;4484394;32;34834;-54
2021/03/01 06:18:27;;;;;;;11.15;2.90;;;;;;;23.49;37.73;101105.84;4484339;32;33830;-48
2021/03/01 06:21:08;;;;;;;7.22;2.78;;;;;;;23.49;37.71;101111.28;4484155;32;34069;-49
2021/03/01 06:23:36;;;;;;;5.95;2.65;;;;;;;23.50;37.63;101110.25;4484463;32;33493;-54
2021/03/01 06:26:22;;;;;;;6.82;3.05;;;;;;;23.49;37.62;101116.75;4484241;32;34749;-50
2021/03/01 06:28:51;;;;;;;9.63;2.75;;;;;;;23.50;37.57;101118.41;4483655;32;34986;-54
2021/03/01 06:31:44;;;;;;;7.07;2.90;;;;;;;23.47;37.65;101129.72;4484145;32;33741;-53
2021/03/01 06:34:26;;;;;;;13.95;3.55;;;;;;;23.49;37.65;101131.19;4484317;32;33259;-53
2021/03/01 06:37:12;;;;;;;6.12;2.80;;;;;;;23.48;37.61;101139.56;4484064;32;34691;-53
2021/03/01 06:39:43;;;;;;;15.98;3.55;;;;;;;23.47;37.57;101140.62;4498474;31;34700;-53
2021/03/01 06:42:17;;;;;;;6.78;2.85;;;;;;;23.45;37.68;101145.41;4499456;31;33822;-50
2021/03/01 06:44:47;;;;;;;7.05;2.70;;;;;;;23.45;37.60;101143.50;4484099;32;33308;-48
2021/03/01 06:47:14;;;;;;;9.02;3.00;;;;;;;23.46;37.63;101147.12;4483569;32;33908;-52
2021/03/01 06:49:45;;;;;;;6.80;2.62;;;;;;;23.44;37.59;101150.00;4484148;32;34003;-55
2021/03/01 06:52:12;;;;;;;6.37;2.87;;;;;;;23.42;37.59;101155.66;4484065;32;34600;-55
2021/03/01 06:54:39;;;;;;;8.98;3.03;;;;;;;23.46;37.48;101160.72;4469930;32;33143;-55
2021/03/01 06:57:08;;;;;;;10.20;3.15;;;;;;;23.45;37.61;101164.47;4469831;32;33566;-50
2021/03/01 06:59:35;;;;;;;5.28;2.42;;;;;;;23.42;37.59;101158.38;4484062;32;33864;-52
2021/03/01 07:02:02;;;;;;;7.07;2.75;;;;;;;23.42;37.62;101161.09;4484068;32;34456;-58
2021/03/01 07:04:30;;;;;;;8.05;3.05;;;;;;;23.43;37.60;101157.34;4481916;32;33151;-51
2021/03/01 07:06:58;;;;;;;8.85;3.25;;;;;;;23.43;37.64;101172.84;4483841;32;33949;-51
2021/03/01 07:09:27;;;;;;;11.60;2.90;;;;;;;23.45;37.71;101169.91;4483970;32;34773;-52
2021/03/01 07:11:54;;;;;;;9.23;2.95;;;;;;;23.45;37.65;101173.47;4483465;32;34948;-59
2021/03/01 07:14:23;;;;;;;7.62;3.33;;;;;;;23.44;37.59;101171.81;4483981;31;33493;-53
2021/03/01 07:16:55;;;;;;;7.68;2.60;;;;;;;23.43;37.66;101179.13;4482441;32;32990;-54
2021/03/01 07:19:27;;;;;;;7.93;2.80;;;;;;;23.44;37.65;101171.81;4494166;31;33821;-56
2021/03/01 07:21:58;;;;;;;7.65;2.58;;;;;;;23.42;37.57;101177.44;4468524;31;34729;-51
2021/03/01 07:24:33;;;;;;;9.95;3.10;;;;;;;23.41;37.52;101174.94;4499816;31;33511;-50
2021/03/01 07:27:01;;;;;;;7.45;2.78;;;;;;;23.42;37.60;101179.34;4499464;31;33607;-52
2021/03/01 07:29:33;;;;;;;7.75;2.33;;;;;;;23.42;37.55;101172.00;4499686;31;33948;-51
2021/03/01 07:32:13;;;;;;;9.65;3.33;;;;;;;23.42;37.63;101182.91;4496798;31;34821;-49
2021/03/01 07:34:40;;;;;;;8.95;2.70;;;;;;;23.41;37.59;101189.41;4482531;32;33052;-56
2021/03/01 07:37:07;;;;;;;6.53;2.53;;;;;;;23.42;37.58;101184.78;4483500;32;35019;-52
2021/03/01 07:39:36;;;;;;;8.57;2.90;;;;;;;23.41;37.56;101177.66;4483751;32;34803;-51
2021/03/01 07:42:04;;;;;;;8.63;3.00;;;;;;;23.40;37.58;101184.97;4484057;32;33852;-54
2021/03/01 07:44:32;;;;;;;8.55;2.70;;;;;;;23.39;37.52;101183.28;4483900;32;34722;-49
2021/03/01 07:47:00;;;;;;;8.65;2.78;;;;;;;23.41;37.58;101183.09;4466648;32;33333;-55
2021/03/01 07:49:43;;;;;;;8.95;3.47;;;;;;;23.40;37.59;101182.22;4483004;32;33851;-56
2021/03/01 07:52:20;;;;;;;15.07;7.85;;;;;;;23.40;37.19;101181.38;4476046;32;33727;-53
2021/03/01 07:54:55;;;;;;;11.70;5.62;;;;;;;23.36;32.39;101190.97;4491299;31;34146;-50
2021/03/01 07:57:26;;;;;;;16.62;5.80;;;;;;;23.36;34.13;101188.25;4483739;32;34637;-52
2021/03/01 07:59:53;;;;;;;25.05;6.03;;;;;;;23.36;35.34;101196.44;4482675;32;34697;-57
2021/03/01 08:02:21;;;;;;;16.62;6.20;;;;;;;23.36;35.24;101194.56;4480540;32;33909;-49
2021/03/01 08:04:50;;;;;;;15.70;5.00;;;;;;;23.36;35.17;101199.16;4482454;32;34075;-51
2021/03/01 08:07:17;;;;;;;18.95;5.65;;;;;;;23.40;35.13;101209.47;4480898;32;34043;-56
2021/03/01 08:09:49;;;;;;;16.25;5.68;;;;;;;23.47;35.08;101214.16;4478460;32;33552;-49
2021/03/01 08:12:28;;;;;;;20.80;5.70;;;;;;;23.51;35.20;101219.03;4480258;32;33771;-47
2021/03/01 08:14:56;;;;;;;19.58;4.82;;;;;;;23.63;35.23;101212.03;4483465;32;33294;-54
2021/03/01 08:17:28;;;;;;;15.90;4.87;;;;;;;23.71;35.23;101223.87;4489020;31;33797;-51
2021/03/01 08:19:56;;;;;;;17.23;5.18;;;;;;;23.80;35.24;101220.84;4498958;31;34644;-53
2021/03/01 08:22:23;;;;;;;22.08;5.10;;;;;;;23.89;35.23;101214.22;4498853;31;34451;-49
2021/03/01 08:24:54;;;;;;;14.38;4.62;;;;;;;24.00;35.29;101215.56;4499005;31;34339;-52
2021/03/01 08:27:27;;;;;;;22.37;4.62;;;;;;;24.12;35.33;101222.19;4484110;31;34813;-48
2021/03/01 08:30:25;;;;;;;16.67;5.15;;;;;;;24.27;35.26;101233.00;4480309;32;33787;-56
2021/03/01 08:33:10;;;;;;;13.82;4.70;;;;;;;24.46;35.12;101238.84;4481500;32;34461;-52
2021/03/01 08:35:41;;;;;;;18.50;4.80;;;;;;;24.63;34.98;101232.88;4487402;31;33346;-54
2021/03/01 08:38:08;;;;;;;14.82;4.30;;;;;;;24.75;34.99;101240.50;4483695;31;33654;-50
2021/03/01 08:40:36;;;;;;;17.08;4.72;;;;;;;24.86;34.86;101248.97;4483008;31;34138;-59
2021/03/01 08:43:05;;;;;;;16.73;4.55;;;;;;;24.95;34.76;101252.38;4482524;32;34286;-53
2021/03/01 08:45:40;;;;;;;12.85;4.62;;;;;;;25.03;34.72;101252.19;4482991;32;33298;-50
2021/03/01 08:48:18;;;;;;;15.82;3.97;;;;;;;25.11;34.67;101254.78;4482420;32;33781;-51
2021/03/01 08:50:49;;;;;;;20.85;4.57;;;;;;;25.17;34.62;101251.25;4482257;32;34708;-51
2021/03/01 08:53:27;;;;;;;13.48;4.40;;;;;;;25.18;34.62;101247.50;4483963;32;34237;-53
2021/03/01 08:55:55;;;;;;;18.05;4.28;;;;;;;25.21;34.64;101251.69;4478590;32;33568;-52
2021/03/01 08:58:23;;;;;;;14.25;4.10;;;;;;;25.25;34.69;101254.88;4484928;32;33813;-52
2021/03/01 09:01:01;;;;;;;18.12;4.12;;;;;;;25.25;34.75;101252.12;4484680;32;34540;-54
2021/03/01 09:03:33;;;;;;;11.48;4.50;;;;;;;25.24;34.83;101262.22;4484452;32;34428;-49
2021/03/01 09:06:13;;;;;;;11.00;4.12;;;;;;;25.24;34.80;101259.50;4483450;32;33306;-53
2021/03/01 09:08:47;;;;;;;13.20;4.30;;;;;;;25.26;34.85;101267.47;4479489;32;34585;-52
2021/03/01 09:11:22;;;;;;;11.00;4.20;;;;;;;25.24;34.83;101262.22;4484300;32;33838;-52
2021/03/01 09:13:53;;;;;;;11.85;4.30;;;;;;;25.22;34.88;101261.56;4484610;32;33885;-53
2021/03/01 09:16:25;;;;;;;11.93;3.70;;;;;;;25.19;34.88;101257.37;4484626;32;33419;-53
2021/03/01 09:18:58;;;;;;;11.82;3.67;;;;;;;25.17;34.84;101258.59;4484462;32;33641;-50
2021/03/01 09:21:24;;;;;;;14.52;4.82;;;;;;;25.14;34.84;101251.66;4484274;32;33737;-49
2021/03/01 09:23:52;;;;;;;12.45;4.25;;;;;;;25.13;34.91;101254.59;4484181;32;33515;-56
2021/03/01 09:26:23;;;;;;;12.25;4.43;;;;;;;25.10;34.97;101250.37;4484268;32;34270;-58
2021/03/01 09:28:51;;;;;;;9.70;3.92;;;;;;;25.09;35.14;101256.06;4492925;31;33571;-48
2021/03/01 09:31:50;;;;;;;12.27;4.30;;;;;;;25.06;35.21;101250.97;4497099;31;34690;-54
2021/03/01 09:34:18;;;;;;;14.27;4.65;;;;;;;25.07;35.19;101261.72;4484376;32;34609;-50
2021/03/01 09:37:06;;;;;;;14.77;4.43;;;;;;;25.01;35.27;101262.50;4484134;32;33395;-53
2021/03/01 09:39:37;;;;;;;11.88;4.07;;;;;;;24.98;35.36;101262.88;4470505;32;33770;-50
2021/03/01 09:42:04;;;;;;;10.30;4.15;;;;;;;24.94;35.44;101276.09;4458224;32;34638;-48
2021/03/01 09:44:32;;;;;;;13.23;4.37;;;;;;;24.92;35.50;101270.00;4484039;32;34005;-50
2021/03/01 09:46:59;;;;;;;13.70;4.20;;;;;;;24.90;35.51;101273.97;4483059;32;34322;-51
2021/03/01 09:49:28;;;;;;;11.70;3.72;;;;;;;24.87;35.56;101282.56;4481918;32;32398;-47
2021/03/01 09:51:56;;;;;;;13.18;4.43;;;;;;;24.84;35.52;101269.31;4484443;32;33933;-52
2021/03/01 09:54:23;;;;;;;14.27;4.12;;;;;;;24.81;35.57;101273.31;4476197;32;35172;-52
2021/03/01 09:56:54;;;;;;;10.70;4.30;;;;;;;24.78;35.65;101284.63;4483186;32;33302;-57
2021/03/01 09:59:33;;;;;;;9.85;3.42;;;;;;;24.76;35.61;101283.97;4484225;32;34607;-52
2021/03/01 10:02:16;;;;;;;12.00;4.32;;;;;;;24.74;35.61;101279.75;4493485;31;33731;-57
2021/03/01 10:04:44;;;;;;;16.52;6.80;;;;;;;24.72;35.11;101285.44;4485515;31;33695;-65
2021/03/01 10:07:31;;;;;;;20.00;6.60;;;;;;;24.63;30.66;101282.00;4482270;31;33445;-48
2021/03/01 10:10:01;;;;;;;11.43;5.35;;;;;;;24.58;32.28;101284.47;4484006;32;34577;-53
2021/03/01 10:12:28;;;;;;;18.40;5.78;;;;;;;24.54;33.17;101287.81;4470184;32;34719;-56
2021/03/01 10:14:58;;;;;;;12.80;5.85;;;;;;;24.51;32.99;101283.56;4481275;32;90254;-55
2021/03/01 10:17:31;;;;;;;15.77;5.53;;;;;;;24.47;33.14;101287.72;4484431;32;34082;-59
2021/03/01 10:20:06;;;;;;;15.70;5.28;;;;;;;24.45;33.36;101278.06;4483856;32;34524;-55
2021/03/01 10:22:58;;;;;;;14.70;5.10;;;;;;;24.43;33.58;101281.84;4484008;32;33866;-55
2021/03/01 10:25:43;;;;;;;14.95;4.85;;;;;;;24.42;33.70;101287.50;4484474;32;33407;-63
2021/03/01 10:28:23;;;;;;;17.85;5.65;;;;;;;24.40;33.83;101281.41;4484063;32;33369;-56
2021/03/01 10:31:04;;;;;;;16.62;5.55;;;;;;;24.35;34.15;101279.22;4484347;32;33973;-56
2021/03/01 10:33:48;;;;;;;20.33;5.70;;;;;;;24.37;34.31;101293.53;4484010;32;33919;-58
2021/03/01 10:36:15;;;;;;;20.20;6.20;;;;;;;24.34;34.43;101293.91;4479093;32;33963;-52
2021/03/01 10:39:06;;;;;;;17.50;5.40;;;;;;;24.34;34.57;101290.31;4484058;32;33630;-56
2021/03/01 10:41:45;;;;;;;16.37;5.28;;;;;;;24.34;34.70;101296.66;4484271;32;34636;-45
2021/03/01 10:44:13;;;;;;;15.18;5.50;;;;;;;24.30;34.81;101289.88;4484156;32;34784;-57
2021/03/01 10:46:49;;;;;;;24.63;5.90;;;;;;;24.29;34.85;101290.91;4484064;32;33815;-55
2021/03/01 10:49:30;;;;;;;18.45;5.87;;;;;;;24.30;34.93;101299.97;4484084;32;33123;-58
2021/03/01 10:51:58;;;;;;;23.33;5.45;;;;;;;24.30;34.86;101305.41;4468575;32;34621;-55
2021/03/01 10:54:26;;;;;;;19.58;5.55;;;;;;;24.25;34.96;101307.84;4477312;31;34941;-52
2021/03/01 10:56:54;;;;;;;16.55;4.85;;;;;;;24.21;34.88;101299.25;4487557;31;32954;-51
2021/03/01 10:59:21;;;;;;;14.15;5.12;;;;;;;24.23;34.89;101304.50;4483945;32;33323;-54
2021/03/01 11:01:48;;;;;;;19.17;5.60;;;;;;;24.22;34.89;101295.47;4483732;32;33582;-55
2021/03/01 11:04:16;;;;;;;18.58;5.62;;;;;;;24.21;34.97;101298.41;4483966;32;34644;-57
2021/03/01 11:06:48;;;;;;;18.17;5.12;;;;;;;24.19;35.03;101304.87;4483696;32;33984;-54
2021/03/01 11:09:15;;;;;;;13.32;5.03;;;;;;;24.17;35.10;101296.06;4483350;32;34394;-55
2021/03/01 11:11:43;;;;;;;13.18;5.25;;;;;;;24.18;35.14;101303.19;4483640;32;33956;-54
2021/03/01 11:14:11;;;;;;;16.65;5.30;;;;;;;24.16;35.25;101302.56;4483799;32;34928;-61
2021/03/01 11:16:38;;;;;;;19.02;5.57;;;;;;;24.14;35.26;101299.16;4483192;32;34476;-54
2021/03/01 11:19:07;;;;;;;13.50;5.35;;;;;;;24.14;35.32;101298.31;4484018;32;33110;-57
2021/03/01 11:21:34;;;;;;;12.93;5.22;;;;;;;24.13;35.33;101294.75;4483735;32;33727;-55
2021/03/01 11:24:02;;;;;;;13.73;5.28;;;;;;;24.15;35.41;101297.28;4483346;32;34966;-49
2021/03/01 11:26:29;;;;;;;21.37;5.30;;;;;;;24.13;35.49;101297.50;4483550;32;34662;-53
2021/03/01 11:28:56;;;;;;;14.65;5.32;;;;;;;24.12;35.57;101294.97;4483623;32;33687;-58
2021/03/01 11:31:23;;;;;;;20.92;5.32;;;;;;;24.11;35.60;101285.94;4483438;32;34484;-57
2021/03/01 11:33:51;;;;;;;19.15;5.18;;;;;;;24.12;35.62;101294.97;4483673;32;33630;-56
2021/03/01 11:36:18;;;;;;;16.70;5.07;;;;;;;24.11;35.67;101285.09;4483801;32;33844;-58